Pagrindinis puslapis
METAR-TAF:

METAR-TAF

Oro uostai :

Auburn/Lewiston Municipal Airport

Auburn-Lewiston, Meinas, Jungtinės Amerikos Valstijos

platuma: 44-03N, ilguma: 070-17W, Aukštis: 88 m

Dabartinis oras

Ataskaita buvo paskelbta 22 minutes, ne 05:56 UTC
Vėjas 10 kt iš Pietvakarių su gūsio iki 21 kt
Temperatūra -2°C
Drėgmė 54%
Slėgis 999 hPa
Matomumas: 16.1 km
Mažai debesys ne aukštis 7000 ft

METAR: KLEW 280556Z AUTO 23010G21KT 10SM FEW070 M02/M10 A2949 RMK AO2 SLP996 T10221100 10006 21022 51022 FZRANO

Laikas: 01:18 (06:18 UTC)


TAF: trūkstamas

Orai ataskaitas ir orų prognozės (METAR, TAF).

turimą stotys yra geltonos ir raudonos taškus žemėlapyje.

Perkelti pele per norėdami pamatyti stoties vardą.

Tada spustelėkite, norėdami matyti oro stebėjimo ir prognozės.

Norėdami pakeisti žemėlapį: spustelėkite ant žalios mygtukų su juodo kryžiaus žemyn,; žalią mygtuką su brūkšneliu, jei norite nutolinti; arba žalių rodyklių gretimoms žemėlapius.


METAR-TAF: